sensor_id;sensor_type;location;lat;lon;timestamp;pressure;altitude;pressure_sealevel;temperature;humidity
36254;BME280;22291;52.250;21.228;2024-03-08T00:00:17;101185.27;;;-3.35;72.66
36254;BME280;22291;52.250;21.228;2024-03-08T00:02:47;101189.32;;;-3.40;72.77
36254;BME280;22291;52.250;21.228;2024-03-08T00:05:17;101184.61;;;-3.44;72.94
36254;BME280;22291;52.250;21.228;2024-03-08T00:07:44;101184.17;;;-3.48;72.94
36254;BME280;22291;52.250;21.228;2024-03-08T00:10:12;101189.05;;;-3.51;73.22
36254;BME280;22291;52.250;21.228;2024-03-08T00:12:41;101183.84;;;-3.55;73.04
36254;BME280;22291;52.250;21.228;2024-03-08T00:15:12;101186.05;;;-3.59;73.30
36254;BME280;22291;52.250;21.228;2024-03-08T00:17:43;101174.21;;;-3.63;73.34
36254;BME280;22291;52.250;21.228;2024-03-08T00:20:12;101179.20;;;-3.64;73.28
36254;BME280;22291;52.250;21.228;2024-03-08T00:22:40;101175.91;;;-3.66;73.80
36254;BME280;22291;52.250;21.228;2024-03-08T00:25:09;101173.27;;;-3.66;74.19
36254;BME280;22291;52.250;21.228;2024-03-08T00:27:37;101183.36;;;-3.66;73.97
36254;BME280;22291;52.250;21.228;2024-03-08T00:30:07;101171.03;;;-3.69;73.90
36254;BME280;22291;52.250;21.228;2024-03-08T00:32:35;101173.55;;;-3.72;73.79
36254;BME280;22291;52.250;21.228;2024-03-08T00:35:06;101170.80;;;-3.74;74.07
36254;BME280;22291;52.250;21.228;2024-03-08T00:37:33;101169.95;;;-3.75;74.37
36254;BME280;22291;52.250;21.228;2024-03-08T00:40:01;101177.27;;;-3.77;73.81
36254;BME280;22291;52.250;21.228;2024-03-08T00:42:32;101166.45;;;-3.82;73.80
36254;BME280;22291;52.250;21.228;2024-03-08T00:45:02;101174.47;;;-3.86;73.89
36254;BME280;22291;52.250;21.228;2024-03-08T00:47:29;101175.66;;;-3.89;74.24
36254;BME280;22291;52.250;21.228;2024-03-08T00:49:55;101169.42;;;-3.92;74.34
36254;BME280;22291;52.250;21.228;2024-03-08T00:52:25;101168.62;;;-3.92;74.24
36254;BME280;22291;52.250;21.228;2024-03-08T00:54:51;101171.77;;;-3.93;74.74
36254;BME280;22291;52.250;21.228;2024-03-08T00:57:17;101166.16;;;-3.94;74.69
36254;BME280;22291;52.250;21.228;2024-03-08T00:59:43;101167.80;;;-3.93;74.84
36254;BME280;22291;52.250;21.228;2024-03-08T01:02:12;101161.39;;;-3.95;74.91
36254;BME280;22291;52.250;21.228;2024-03-08T01:04:38;101163.41;;;-3.97;74.90
36254;BME280;22291;52.250;21.228;2024-03-08T01:07:04;101163.89;;;-3.97;75.04
36254;BME280;22291;52.250;21.228;2024-03-08T01:09:32;101163.27;;;-3.99;75.08
36254;BME280;22291;52.250;21.228;2024-03-08T01:11:58;101162.95;;;-4.00;75.07
36254;BME280;22291;52.250;21.228;2024-03-08T01:14:27;101167.61;;;-4.02;75.20
36254;BME280;22291;52.250;21.228;2024-03-08T01:16:55;101164.35;;;-4.04;75.46
36254;BME280;22291;52.250;21.228;2024-03-08T01:19:21;101157.12;;;-4.06;75.51
36254;BME280;22291;52.250;21.228;2024-03-08T01:21:49;101162.70;;;-4.05;75.47
36254;BME280;22291;52.250;21.228;2024-03-08T01:24:17;101157.83;;;-4.08;75.67
36254;BME280;22291;52.250;21.228;2024-03-08T01:26:45;101151.70;;;-4.09;75.19
36254;BME280;22291;52.250;21.228;2024-03-08T01:29:13;101154.86;;;-4.09;75.55
36254;BME280;22291;52.250;21.228;2024-03-08T01:31:39;101150.45;;;-4.13;75.72
36254;BME280;22291;52.250;21.228;2024-03-08T01:34:05;101146.31;;;-4.11;75.48
36254;BME280;22291;52.250;21.228;2024-03-08T01:36:31;101143.66;;;-4.11;75.68
36254;BME280;22291;52.250;21.228;2024-03-08T01:38:58;101142.02;;;-4.13;75.67
36254;BME280;22291;52.250;21.228;2024-03-08T01:41:24;101146.50;;;-4.13;75.57
36254;BME280;22291;52.250;21.228;2024-03-08T01:43:50;101146.69;;;-4.15;75.75
36254;BME280;22291;52.250;21.228;2024-03-08T01:46:19;101144.74;;;-4.17;75.50
36254;BME280;22291;52.250;21.228;2024-03-08T01:48:49;101146.11;;;-4.21;75.36
36254;BME280;22291;52.250;21.228;2024-03-08T01:51:19;101147.14;;;-4.22;75.71
36254;BME280;22291;52.250;21.228;2024-03-08T01:53:48;101148.64;;;-4.23;75.70
36254;BME280;22291;52.250;21.228;2024-03-08T01:56:15;101145.38;;;-4.25;75.97
36254;BME280;22291;52.250;21.228;2024-03-08T01:58:44;101148.21;;;-4.27;75.81
36254;BME280;22291;52.250;21.228;2024-03-08T02:01:12;101139.85;;;-4.30;75.43
36254;BME280;22291;52.250;21.228;2024-03-08T02:03:43;101139.89;;;-4.35;75.41
36254;BME280;22291;52.250;21.228;2024-03-08T02:06:15;101137.00;;;-4.40;75.42
36254;BME280;22291;52.250;21.228;2024-03-08T02:08:44;101131.91;;;-4.41;75.79
36254;BME280;22291;52.250;21.228;2024-03-08T02:11:13;101131.91;;;-4.41;75.97
36254;BME280;22291;52.250;21.228;2024-03-08T02:13:40;101129.78;;;-4.42;75.81
36254;BME280;22291;52.250;21.228;2024-03-08T02:16:08;101122.23;;;-4.45;75.22
36254;BME280;22291;52.250;21.228;2024-03-08T02:18:36;101126.38;;;-4.46;74.98
36254;BME280;22291;52.250;21.228;2024-03-08T02:21:06;101125.57;;;-4.47;75.49
36254;BME280;22291;52.250;21.228;2024-03-08T02:23:34;101125.57;;;-4.47;75.51
36254;BME280;22291;52.250;21.228;2024-03-08T02:26:03;101124.44;;;-4.48;75.64
36254;BME280;22291;52.250;21.228;2024-03-08T02:28:32;101127.08;;;-4.48;75.60
36254;BME280;22291;52.250;21.228;2024-03-08T02:30:59;101128.40;;;-4.48;75.72
36254;BME280;22291;52.250;21.228;2024-03-08T02:33:29;101123.48;;;-4.52;75.41
36254;BME280;22291;52.250;21.228;2024-03-08T02:35:56;101126.64;;;-4.52;76.05
36254;BME280;22291;52.250;21.228;2024-03-08T02:38:24;101121.87;;;-4.53;76.12
36254;BME280;22291;52.250;21.228;2024-03-08T02:40:53;101121.73;;;-4.55;75.97
36254;BME280;22291;52.250;21.228;2024-03-08T02:43:21;101124.88;;;-4.56;76.12
36254;BME280;22291;52.250;21.228;2024-03-08T02:45:52;101125.06;;;-4.57;75.71
36254;BME280;22291;52.250;21.228;2024-03-08T02:48:21;101120.67;;;-4.61;75.56
36254;BME280;22291;52.250;21.228;2024-03-08T02:50:51;101125.33;;;-4.63;76.02
36254;BME280;22291;52.250;21.228;2024-03-08T02:53:19;101127.02;;;-4.66;76.11
36254;BME280;22291;52.250;21.228;2024-03-08T02:55:47;101119.65;;;-4.71;75.63
36254;BME280;22291;52.250;21.228;2024-03-08T02:58:13;101117.38;;;-4.74;76.10
36254;BME280;22291;52.250;21.228;2024-03-08T03:00:42;101122.22;;;-4.77;76.01
36254;BME280;22291;52.250;21.228;2024-03-08T03:03:10;101118.63;;;-4.80;75.95
36254;BME280;22291;52.250;21.228;2024-03-08T03:05:38;101121.16;;;-4.83;75.66
36254;BME280;22291;52.250;21.228;2024-03-08T03:08:09;101121.70;;;-4.88;75.57
36254;BME280;22291;52.250;21.228;2024-03-08T03:10:38;101115.17;;;-4.92;75.92
36254;BME280;22291;52.250;21.228;2024-03-08T03:13:05;101118.19;;;-4.95;75.69
36254;BME280;22291;52.250;21.228;2024-03-08T03:15:31;101114.41;;;-4.96;75.86
36254;BME280;22291;52.250;21.228;2024-03-08T03:17:57;101119.24;;;-5.00;75.75
36254;BME280;22291;52.250;21.228;2024-03-08T03:20:23;101121.55;;;-5.01;76.11
36254;BME280;22291;52.250;21.228;2024-03-08T03:22:51;101120.41;;;-5.02;76.31
36254;BME280;22291;52.250;21.228;2024-03-08T03:25:22;101118.11;;;-5.01;76.39
36254;BME280;22291;52.250;21.228;2024-03-08T03:27:53;101119.42;;;-5.01;76.42
36254;BME280;22291;52.250;21.228;2024-03-08T03:30:22;101121.44;;;-5.03;76.30
36254;BME280;22291;52.250;21.228;2024-03-08T03:32:54;101114.51;;;-5.04;76.40
36254;BME280;22291;52.250;21.228;2024-03-08T03:35:22;101112.05;;;-5.06;76.44
36254;BME280;22291;52.250;21.228;2024-03-08T03:37:50;101108.09;;;-5.06;76.62
36254;BME280;22291;52.250;21.228;2024-03-08T03:40:38;101113.38;;;-5.06;76.68
36254;BME280;22291;52.250;21.228;2024-03-08T03:43:08;101111.87;;;-5.04;76.86
36254;BME280;22291;52.250;21.228;2024-03-08T03:45:36;101111.58;;;-5.05;77.07
36254;BME280;22291;52.250;21.228;2024-03-08T03:48:07;101109.74;;;-5.05;76.87
36254;BME280;22291;52.250;21.228;2024-03-08T03:50:36;101107.47;;;-5.08;76.74
36254;BME280;22291;52.250;21.228;2024-03-08T03:53:04;101103.19;;;-5.09;76.57
36254;BME280;22291;52.250;21.228;2024-03-08T03:55:32;101099.62;;;-5.12;76.58
36254;BME280;22291;52.250;21.228;2024-03-08T03:57:59;101111.17;;;-5.13;76.77
36254;BME280;22291;52.250;21.228;2024-03-08T04:00:27;101101.42;;;-5.13;76.61
36254;BME280;22291;52.250;21.228;2024-03-08T04:02:53;101104.39;;;-5.12;76.96
36254;BME280;22291;52.250;21.228;2024-03-08T04:05:23;101103.88;;;-5.11;76.94
36254;BME280;22291;52.250;21.228;2024-03-08T04:07:49;101102.27;;;-5.12;76.98
36254;BME280;22291;52.250;21.228;2024-03-08T04:10:16;101101.24;;;-5.11;76.87
36254;BME280;22291;52.250;21.228;2024-03-08T04:12:45;101094.02;;;-5.13;76.69
36254;BME280;22291;52.250;21.228;2024-03-08T04:15:14;101097.65;;;-5.14;76.46
36254;BME280;22291;52.250;21.228;2024-03-08T04:17:43;101092.95;;;-5.19;76.51
36254;BME280;22291;52.250;21.228;2024-03-08T04:20:11;101091.99;;;-5.22;76.41
36254;BME280;22291;52.250;21.228;2024-03-08T04:22:44;101089.21;;;-5.25;76.95
36254;BME280;22291;52.250;21.228;2024-03-08T04:25:13;101090.16;;;-5.21;77.27
36254;BME280;22291;52.250;21.228;2024-03-08T04:27:44;101090.86;;;-5.23;76.89
36254;BME280;22291;52.250;21.228;2024-03-08T04:30:13;101096.31;;;-5.25;77.32
36254;BME280;22291;52.250;21.228;2024-03-08T04:32:39;101094.70;;;-5.26;76.88
36254;BME280;22291;52.250;21.228;2024-03-08T04:35:10;101094.22;;;-5.30;76.89
36254;BME280;22291;52.250;21.228;2024-03-08T04:37:41;101091.58;;;-5.30;77.11
36254;BME280;22291;52.250;21.228;2024-03-08T04:40:10;101096.56;;;-5.31;76.99
36254;BME280;22291;52.250;21.228;2024-03-08T04:42:39;101093.92;;;-5.31;77.26
36254;BME280;22291;52.250;21.228;2024-03-08T04:45:09;101098.69;;;-5.30;77.42
36254;BME280;22291;52.250;21.228;2024-03-08T04:47:42;101093.41;;;-5.30;77.04
36254;BME280;22291;52.250;21.228;2024-03-08T04:50:11;101091.98;;;-5.33;76.99
36254;BME280;22291;52.250;21.228;2024-03-08T04:52:38;101096.92;;;-5.34;77.11
36254;BME280;22291;52.250;21.228;2024-03-08T04:55:07;101092.16;;;-5.34;76.95
36254;BME280;22291;52.250;21.228;2024-03-08T04:57:35;101093.14;;;-5.35;76.83
36254;BME280;22291;52.250;21.228;2024-03-08T05:00:05;101086.44;;;-5.38;76.97
36254;BME280;22291;52.250;21.228;2024-03-08T05:02:33;101089.08;;;-5.38;76.88
36254;BME280;22291;52.250;21.228;2024-03-08T05:05:00;101089.73;;;-5.40;76.73
36254;BME280;22291;52.250;21.228;2024-03-08T05:07:28;101091.05;;;-5.40;76.89
36254;BME280;22291;52.250;21.228;2024-03-08T05:09:57;101093.69;;;-5.40;77.39
36254;BME280;22291;52.250;21.228;2024-03-08T05:12:23;101088.05;;;-5.37;77.54
36254;BME280;22291;52.250;21.228;2024-03-08T05:14:49;101091.02;;;-5.36;77.63
36254;BME280;22291;52.250;21.228;2024-03-08T05:17:17;101094.47;;;-5.35;77.38
36254;BME280;22291;52.250;21.228;2024-03-08T05:19:44;101086.44;;;-5.38;77.18
36254;BME280;22291;52.250;21.228;2024-03-08T05:22:10;101090.51;;;-5.35;77.58
36254;BME280;22291;52.250;21.228;2024-03-08T05:24:39;101098.42;;;-5.35;77.31
36254;BME280;22291;52.250;21.228;2024-03-08T05:27:07;101097.61;;;-5.36;77.19
36254;BME280;22291;52.250;21.228;2024-03-08T05:29:33;101096.77;;;-5.36;77.21
36254;BME280;22291;52.250;21.228;2024-03-08T05:31:59;101090.69;;;-5.37;77.33
36254;BME280;22291;52.250;21.228;2024-03-08T05:34:29;101095.61;;;-5.34;77.47
36254;BME280;22291;52.250;21.228;2024-03-08T05:36:59;101092.78;;;-5.32;77.47
36254;BME280;22291;52.250;21.228;2024-03-08T05:39:25;101097.37;;;-5.30;77.84
36254;BME280;22291;52.250;21.228;2024-03-08T05:41:55;101086.45;;;-5.27;77.85
36254;BME280;22291;52.250;21.228;2024-03-08T05:44:22;101092.80;;;-5.21;77.94
36254;BME280;22291;52.250;21.228;2024-03-08T05:46:53;101089.11;;;-5.16;77.84
36254;BME280;22291;52.250;21.228;2024-03-08T05:49:22;101092.63;;;-5.09;78.08
36254;BME280;22291;52.250;21.228;2024-03-08T05:51:54;101094.21;;;-5.04;78.24
36254;BME280;22291;52.250;21.228;2024-03-08T05:54:23;101089.34;;;-4.96;78.51
36254;BME280;22291;52.250;21.228;2024-03-08T05:56:50;101078.78;;;-4.85;78.79
36254;BME280;22291;52.250;21.228;2024-03-08T05:59:20;101081.12;;;-4.76;79.01
36254;BME280;22291;52.250;21.228;2024-03-08T06:01:48;101086.72;;;-4.64;79.14
36254;BME280;22291;52.250;21.228;2024-03-08T06:04:16;101082.27;;;-4.53;79.27
36254;BME280;22291;52.250;21.228;2024-03-08T06:06:44;101080.41;;;-4.41;79.31
36254;BME280;22291;52.250;21.228;2024-03-08T06:09:15;101087.31;;;-4.29;79.35
36254;BME280;22291;52.250;21.228;2024-03-08T06:11:46;101081.81;;;-4.17;79.63
36254;BME280;22291;52.250;21.228;2024-03-08T06:14:12;101091.16;;;-4.04;79.73
36254;BME280;22291;52.250;21.228;2024-03-08T06:16:38;101084.13;;;-3.90;80.01
36254;BME280;22291;52.250;21.228;2024-03-08T06:19:04;101096.77;;;-3.74;80.38
36254;BME280;22291;52.250;21.228;2024-03-08T06:21:33;101090.14;;;-3.57;80.99
36254;BME280;22291;52.250;21.228;2024-03-08T06:23:59;101090.02;;;-3.35;81.73
36254;BME280;22291;52.250;21.228;2024-03-08T06:26:25;101093.36;;;-3.13;81.83
36254;BME280;22291;52.250;21.228;2024-03-08T06:28:57;101090.58;;;-2.92;81.93
36254;BME280;22291;52.250;21.228;2024-03-08T06:31:24;101089.11;;;-2.70;81.67
36254;BME280;22291;52.250;21.228;2024-03-08T06:33:52;101092.59;;;-2.50;81.83
36254;BME280;22291;52.250;21.228;2024-03-08T06:36:20;101094.63;;;-2.25;82.40
36254;BME280;22291;52.250;21.228;2024-03-08T06:38:53;101093.70;;;-1.95;82.48
36254;BME280;22291;52.250;21.228;2024-03-08T06:41:20;101095.07;;;-1.65;82.93
36254;BME280;22291;52.250;21.228;2024-03-08T06:43:48;101097.52;;;-1.35;83.09
36254;BME280;22291;52.250;21.228;2024-03-08T06:46:18;101098.13;;;-1.03;83.14
36254;BME280;22291;52.250;21.228;2024-03-08T06:48:46;101101.69;;;-0.68;83.14
36254;BME280;22291;52.250;21.228;2024-03-08T06:51:16;101095.95;;;-0.33;83.06
36254;BME280;22291;52.250;21.228;2024-03-08T06:53:42;101095.83;;;0.05;83.89
36254;BME280;22291;52.250;21.228;2024-03-08T06:56:11;101094.87;;;0.46;83.89
36254;BME280;22291;52.250;21.228;2024-03-08T06:58:37;101099.00;;;0.88;83.48
36254;BME280;22291;52.250;21.228;2024-03-08T07:01:04;101083.52;;;1.27;82.69
36254;BME280;22291;52.250;21.228;2024-03-08T07:03:35;101085.10;;;1.70;82.09
36254;BME280;22291;52.250;21.228;2024-03-08T07:06:01;101086.58;;;2.11;81.35
36254;BME280;22291;52.250;21.228;2024-03-08T07:08:29;101091.22;;;2.53;80.63
36254;BME280;22291;52.250;21.228;2024-03-08T07:10:57;101092.80;;;2.92;79.75
36254;BME280;22291;52.250;21.228;2024-03-08T07:13:25;101085.48;;;3.31;79.03
36254;BME280;22291;52.250;21.228;2024-03-08T07:15:53;101089.64;;;3.72;77.64
36254;BME280;22291;52.250;21.228;2024-03-08T07:18:21;101087.55;;;4.11;77.07
36254;BME280;22291;52.250;21.228;2024-03-08T07:20:48;101087.81;;;4.51;76.09
36254;BME280;22291;52.250;21.228;2024-03-08T07:23:16;101081.62;;;4.92;75.60
36254;BME280;22291;52.250;21.228;2024-03-08T07:25:46;101081.72;;;5.30;74.08
36254;BME280;22291;52.250;21.228;2024-03-08T07:28:16;101087.40;;;5.66;72.88
36254;BME280;22291;52.250;21.228;2024-03-08T07:30:42;101080.97;;;6.02;71.92
36254;BME280;22291;52.250;21.228;2024-03-08T07:33:12;101083.77;;;6.25;70.28
36254;BME280;22291;52.250;21.228;2024-03-08T07:35:42;101083.75;;;6.72;70.06
36254;BME280;22291;52.250;21.228;2024-03-08T07:38:10;101082.52;;;7.19;69.22
36254;BME280;22291;52.250;21.228;2024-03-08T07:40:40;101086.86;;;7.63;67.91
36254;BME280;22291;52.250;21.228;2024-03-08T07:43:11;101084.13;;;8.04;66.67
36254;BME280;22291;52.250;21.228;2024-03-08T07:45:40;101078.96;;;8.26;63.70
36254;BME280;22291;52.250;21.228;2024-03-08T07:48:10;101075.32;;;8.72;64.26
36254;BME280;22291;52.250;21.228;2024-03-08T07:50:41;101080.94;;;9.60;62.81
36254;BME280;22291;52.250;21.228;2024-03-08T07:53:09;101075.67;;;10.56;60.61
36254;BME280;22291;52.250;21.228;2024-03-08T07:55:38;101077.12;;;11.46;58.36
36254;BME280;22291;52.250;21.228;2024-03-08T07:58:06;101080.22;;;12.19;56.35
36254;BME280;22291;52.250;21.228;2024-03-08T08:00:34;101075.77;;;12.90;54.57
36254;BME280;22291;52.250;21.228;2024-03-08T08:03:04;101069.62;;;13.57;53.23
36254;BME280;22291;52.250;21.228;2024-03-08T08:05:34;101069.95;;;14.18;51.66
36254;BME280;22291;52.250;21.228;2024-03-08T08:08:02;101069.80;;;14.81;50.56
36254;BME280;22291;52.250;21.228;2024-03-08T08:10:33;101065.34;;;15.38;49.04
36254;BME280;22291;52.250;21.228;2024-03-08T08:12:59;101077.46;;;15.84;47.22
36254;BME280;22291;52.250;21.228;2024-03-08T08:15:32;101076.64;;;16.16;46.26
36254;BME280;22291;52.250;21.228;2024-03-08T08:18:01;101079.38;;;16.46;45.39
36254;BME280;22291;52.250;21.228;2024-03-08T08:20:31;101072.44;;;16.63;44.79
36254;BME280;22291;52.250;21.228;2024-03-08T08:22:57;101069.70;;;16.63;43.86
36254;BME280;22291;52.250;21.228;2024-03-08T08:25:25;101075.52;;;16.47;42.13
36254;BME280;22291;52.250;21.228;2024-03-08T08:27:51;101066.45;;;16.10;40.94
36254;BME280;22291;52.250;21.228;2024-03-08T08:30:20;101063.54;;;15.92;40.81
36254;BME280;22291;52.250;21.228;2024-03-08T08:32:46;101064.97;;;15.98;41.32
36254;BME280;22291;52.250;21.228;2024-03-08T08:35:18;101071.37;;;16.40;41.28
36254;BME280;22291;52.250;21.228;2024-03-08T08:37:45;101059.83;;;17.01;40.84
36254;BME280;22291;52.250;21.228;2024-03-08T08:40:16;101061.58;;;17.66;40.11
36254;BME280;22291;52.250;21.228;2024-03-08T08:42:47;101049.80;;;18.29;39.02
36254;BME280;22291;52.250;21.228;2024-03-08T08:45:15;101055.44;;;18.92;38.26
36254;BME280;22291;52.250;21.228;2024-03-08T08:47:46;101049.71;;;19.48;37.51
36254;BME280;22291;52.250;21.228;2024-03-08T08:50:16;101053.34;;;19.96;36.14
36254;BME280;22291;52.250;21.228;2024-03-08T08:52:46;101052.67;;;20.34;35.07
36254;BME280;22291;52.250;21.228;2024-03-08T08:55:13;101046.89;;;20.56;34.54
36254;BME280;22291;52.250;21.228;2024-03-08T08:57:42;101047.25;;;20.89;34.34
36254;BME280;22291;52.250;21.228;2024-03-08T09:00:14;101043.31;;;21.30;33.06
36254;BME280;22291;52.250;21.228;2024-03-08T09:02:44;101035.78;;;21.56;32.59
36254;BME280;22291;52.250;21.228;2024-03-08T09:05:14;101040.19;;;21.83;32.16
36254;BME280;22291;52.250;21.228;2024-03-08T09:07:47;101036.90;;;22.24;31.50
36254;BME280;22291;52.250;21.228;2024-03-08T09:10:14;101036.04;;;22.73;31.30
36254;BME280;22291;52.250;21.228;2024-03-08T09:12:42;101037.17;;;23.16;30.66
36254;BME280;22291;52.250;21.228;2024-03-08T09:15:10;101040.65;;;23.47;30.24
36254;BME280;22291;52.250;21.228;2024-03-08T09:17:42;101038.75;;;23.75;29.63
36254;BME280;22291;52.250;21.228;2024-03-08T09:20:12;101041.59;;;24.07;29.20
36254;BME280;22291;52.250;21.228;2024-03-08T09:22:46;101032.36;;;23.88;27.69
36254;BME280;22291;52.250;21.228;2024-03-08T09:25:13;101026.34;;;23.99;28.13
36254;BME280;22291;52.250;21.228;2024-03-08T09:27:40;101025.61;;;24.06;27.82
36254;BME280;22291;52.250;21.228;2024-03-08T09:30:12;101021.50;;;23.85;27.62
36254;BME280;22291;52.250;21.228;2024-03-08T09:32:40;101018.12;;;23.41;27.89
36254;BME280;22291;52.250;21.228;2024-03-08T09:35:10;101019.70;;;22.91;27.34
36254;BME280;22291;52.250;21.228;2024-03-08T09:37:38;101018.84;;;22.40;27.47
36254;BME280;22291;52.250;21.228;2024-03-08T09:40:09;101011.78;;;22.16;27.96
36254;BME280;22291;52.250;21.228;2024-03-08T09:42:36;101004.67;;;22.15;28.36
36254;BME280;22291;52.250;21.228;2024-03-08T09:45:10;101012.13;;;22.01;27.57
36254;BME280;22291;52.250;21.228;2024-03-08T09:47:42;101007.44;;;22.01;28.25
36254;BME280;22291;52.250;21.228;2024-03-08T09:50:11;101003.52;;;22.16;28.12
36254;BME280;22291;52.250;21.228;2024-03-08T09:52:40;101009.42;;;22.28;28.42
36254;BME280;22291;52.250;21.228;2024-03-08T09:55:12;101008.52;;;22.33;27.19
36254;BME280;22291;52.250;21.228;2024-03-08T09:57:41;101006.06;;;22.01;27.14
36254;BME280;22291;52.250;21.228;2024-03-08T10:00:29;100999.32;;;21.99;26.82
36254;BME280;22291;52.250;21.228;2024-03-08T10:03:01;100997.68;;;22.08;27.30
36254;BME280;22291;52.250;21.228;2024-03-08T10:05:31;100994.95;;;22.34;26.95
36254;BME280;22291;52.250;21.228;2024-03-08T10:08:00;100997.50;;;22.64;26.62
36254;BME280;22291;52.250;21.228;2024-03-08T10:10:37;100992.23;;;22.51;25.96
36254;BME280;22291;52.250;21.228;2024-03-08T10:13:09;100990.59;;;22.33;26.11
36254;BME280;22291;52.250;21.228;2024-03-08T10:15:40;100988.85;;;22.35;26.17
36254;BME280;22291;52.250;21.228;2024-03-08T10:18:10;100987.03;;;22.19;26.15
36254;BME280;22291;52.250;21.228;2024-03-08T10:20:37;100987.94;;;22.00;26.08
36254;BME280;22291;52.250;21.228;2024-03-08T10:23:04;100984.74;;;22.25;26.72
36254;BME280;22291;52.250;21.228;2024-03-08T10:25:37;100977.13;;;22.42;26.47
36254;BME280;22291;52.250;21.228;2024-03-08T10:28:04;100974.33;;;22.38;26.03
36254;BME280;22291;52.250;21.228;2024-03-08T10:30:33;100979.99;;;22.35;25.61
36254;BME280;22291;52.250;21.228;2024-03-08T10:33:00;100981.00;;;22.37;26.11
36254;BME280;22291;52.250;21.228;2024-03-08T10:35:31;100982.83;;;22.39;25.81
36254;BME280;22291;52.250;21.228;2024-03-08T10:38:00;100979.20;;;22.35;25.47
36254;BME280;22291;52.250;21.228;2024-03-08T10:40:31;100976.72;;;22.40;25.59
36254;BME280;22291;52.250;21.228;2024-03-08T10:43:00;100973.83;;;22.46;25.49
36254;BME280;22291;52.250;21.228;2024-03-08T10:45:35;100976.03;;;22.33;25.06
36254;BME280;22291;52.250;21.228;2024-03-08T10:48:34;100969.72;;;22.19;24.50
36254;BME280;22291;52.250;21.228;2024-03-08T10:51:06;100969.30;;;22.78;24.58
36254;BME280;22291;52.250;21.228;2024-03-08T10:53:37;100963.97;;;23.74;23.95
36254;BME280;22291;52.250;21.228;2024-03-08T10:56:10;100964.54;;;24.29;23.55
36254;BME280;22291;52.250;21.228;2024-03-08T10:58:43;100961.89;;;24.16;23.47
36254;BME280;22291;52.250;21.228;2024-03-08T11:01:12;100962.73;;;23.92;23.30
36254;BME280;22291;52.250;21.228;2024-03-08T11:03:44;100954.39;;;23.61;22.92
36254;BME280;22291;52.250;21.228;2024-03-08T11:06:31;100953.55;;;23.33;23.31
36254;BME280;22291;52.250;21.228;2024-03-08T11:12:25;100951.16;;;23.76;22.70
36254;BME280;22291;52.250;21.228;2024-03-08T11:15:11;100949.84;;;24.14;22.11
36254;BME280;22291;52.250;21.228;2024-03-08T11:17:48;100948.17;;;24.30;22.15
36254;BME280;22291;52.250;21.228;2024-03-08T11:20:20;100947.19;;;24.71;22.18
36254;BME280;22291;52.250;21.228;2024-03-08T11:23:00;100944.89;;;25.02;22.21
36254;BME280;22291;52.250;21.228;2024-03-08T11:25:34;100943.58;;;25.30;22.14
36254;BME280;22291;52.250;21.228;2024-03-08T11:28:15;100941.80;;;25.68;22.00
36254;BME280;22291;52.250;21.228;2024-03-08T11:33:31;100927.11;;;25.89;21.63
36254;BME280;22291;52.250;21.228;2024-03-08T11:36:12;100925.72;;;25.93;21.64
36254;BME280;22291;52.250;21.228;2024-03-08T11:38:44;100922.19;;;25.85;21.46
36254;BME280;22291;52.250;21.228;2024-03-08T11:41:11;100918.63;;;25.77;21.41
36254;BME280;22291;52.250;21.228;2024-03-08T11:43:40;100915.09;;;25.51;21.15
36254;BME280;22291;52.250;21.228;2024-03-08T11:46:15;100918.05;;;25.45;21.37
36254;BME280;22291;52.250;21.228;2024-03-08T11:48:47;100914.09;;;25.28;20.97
36254;BME280;22291;52.250;21.228;2024-03-08T11:51:15;100912.08;;;25.11;21.00
36254;BME280;22291;52.250;21.228;2024-03-08T11:53:44;100911.86;;;24.99;21.31
36254;BME280;22291;52.250;21.228;2024-03-08T11:56:13;100909.85;;;24.74;21.32
36254;BME280;22291;52.250;21.228;2024-03-08T11:58:41;100909.53;;;24.48;21.40
36254;BME280;22291;52.250;21.228;2024-03-08T12:01:10;100903.98;;;24.45;21.46
36254;BME280;22291;52.250;21.228;2024-03-08T12:03:41;100904.08;;;24.55;21.51
36254;BME280;22291;52.250;21.228;2024-03-08T12:06:12;100897.95;;;24.56;21.58
36254;BME280;22291;52.250;21.228;2024-03-08T12:08:41;100887.83;;;24.50;21.20
36254;BME280;22291;52.250;21.228;2024-03-08T12:11:09;100897.84;;;24.41;21.45
36254;BME280;22291;52.250;21.228;2024-03-08T12:13:37;100889.22;;;24.54;21.66
36254;BME280;22291;52.250;21.228;2024-03-08T12:16:05;100894.20;;;24.65;21.53
36254;BME280;22291;52.250;21.228;2024-03-08T12:18:38;100886.45;;;24.54;21.13
36254;BME280;22291;52.250;21.228;2024-03-08T12:21:07;100887.98;;;24.37;21.12
36254;BME280;22291;52.250;21.228;2024-03-08T12:23:35;100879.16;;;24.06;21.05
36254;BME280;22291;52.250;21.228;2024-03-08T12:26:23;100876.73;;;23.69;21.00
36254;BME280;22291;52.250;21.228;2024-03-08T12:28:52;100873.34;;;23.35;21.15
36254;BME280;22291;52.250;21.228;2024-03-08T12:31:21;100870.44;;;23.00;21.61
36254;BME280;22291;52.250;21.228;2024-03-08T12:33:53;100870.66;;;23.01;21.55
36254;BME280;22291;52.250;21.228;2024-03-08T12:36:23;100869.47;;;22.99;21.76
36254;BME280;22291;52.250;21.228;2024-03-08T12:38:53;100866.30;;;23.00;21.65
36254;BME280;22291;52.250;21.228;2024-03-08T12:41:21;100862.05;;;22.86;21.48
36254;BME280;22291;52.250;21.228;2024-03-08T12:43:49;100861.89;;;22.88;21.79
36254;BME280;22291;52.250;21.228;2024-03-08T12:46:21;100854.34;;;22.82;21.77
36254;BME280;22291;52.250;21.228;2024-03-08T12:48:51;100847.63;;;22.83;22.06
36254;BME280;22291;52.250;21.228;2024-03-08T12:51:21;100856.12;;;22.84;22.01
36254;BME280;22291;52.250;21.228;2024-03-08T12:53:48;100850.67;;;22.70;21.93
36254;BME280;22291;52.250;21.228;2024-03-08T12:56:21;100843.45;;;22.59;21.49